Terminal Aerodrome Forecast
Issued by NWS

Home | Current Version | Previous Version | Text Only | Print | Product List | Glossary Off
Versions: 1 2 3 4 5 6 7 8 9 10 11 12 13 14 15

000
FTUS43 KMPX 221720
TAFRNH
TAF
KRNH 221720Z 2218/2318 31018G25KT P6SM BKN050
     FM222100 31016G22KT P6SM SCT050
     FM230100 32008KT P6SM SCT050
     FM230600 31005KT P6SM SKC=

USA.gov is the U.S. government's official web portal to all federal, state and local government web resources and services.